createdAt,value
2019-01-09T00:01:38.310Z,77.57
2019-01-09T00:04:07.660Z,77.45
2019-01-09T00:06:37.124Z,77.34
2019-01-09T00:09:08.427Z,77.35
2019-01-09T00:11:37.755Z,77.21
2019-01-09T00:14:07.435Z,76.88
2019-01-09T00:16:36.894Z,76.70
2019-01-09T00:19:06.226Z,76.83
2019-01-09T00:21:35.667Z,77.44
2019-01-09T00:24:05.414Z,77.93
2019-01-09T00:26:35.096Z,78.15
2019-01-09T00:29:04.727Z,78.28
2019-01-09T00:31:34.020Z,78.48
2019-01-09T00:34:03.398Z,78.64
2019-01-09T00:36:32.708Z,78.73
2019-01-09T00:39:02.023Z,78.88
2019-01-09T00:41:31.471Z,78.79
2019-01-09T00:44:00.798Z,78.43
2019-01-09T00:46:30.137Z,78.65
2019-01-09T00:48:59.477Z,78.53
2019-01-09T00:51:28.849Z,78.07
2019-01-09T00:53:58.361Z,78.11
2019-01-09T00:56:27.908Z,78.29
2019-01-09T00:58:57.332Z,78.21
2019-01-09T01:01:26.801Z,77.73
2019-01-09T01:04:37.766Z,77.26
2019-01-09T01:08:03.216Z,77.17
2019-01-09T01:11:19.544Z,76.90
2019-01-09T01:14:26.461Z,76.40
2019-01-09T01:17:40.673Z,75.63
2019-01-09T01:20:36.851Z,75.36
2019-01-09T01:23:43.131Z,75.50
2019-01-09T01:26:46.445Z,75.68
2019-01-09T01:29:51.816Z,75.62
2019-01-09T01:32:58.926Z,75.44
2019-01-09T01:36:04.272Z,74.81
2019-01-09T01:39:21.827Z,74.46
2019-01-09T01:42:14.081Z,74.41
2019-01-09T01:45:15.343Z,74.56
2019-01-09T01:48:26.876Z,74.51
2019-01-09T01:51:32.966Z,73.97
2019-01-09T01:54:42.229Z,74.06
2019-01-09T01:57:36.020Z,74.20
2019-01-09T02:00:41.388Z,74.31
2019-01-09T02:04:00.627Z,74.69
2019-01-09T02:07:08.112Z,74.95
2019-01-09T02:10:07.022Z,74.04
2019-01-09T02:13:26.220Z,74.18
2019-01-09T02:16:27.871Z,74.64
2019-01-09T02:19:37.452Z,75.14
2019-01-09T02:22:59.999Z,74.94
2019-01-09T02:25:58.596Z,75.08
2019-01-09T02:29:05.809Z,76.01
2019-01-09T02:32:01.421Z,76.33
2019-01-09T02:34:30.745Z,77.05
2019-01-09T02:37:00.085Z,77.66
2019-01-09T02:39:29.415Z,78.10
2019-01-09T02:41:58.760Z,78.66
2019-01-09T02:44:32.385Z,78.98
2019-01-09T02:46:59.143Z,79.28
2019-01-09T02:49:28.571Z,79.77
2019-01-09T02:51:57.887Z,80.05
2019-01-09T02:54:27.238Z,80.49
2019-01-09T02:56:56.582Z,80.64
2019-01-09T02:59:25.989Z,80.86
2019-01-09T03:01:55.361Z,80.87
2019-01-09T03:04:24.688Z,81.17
2019-01-09T03:06:54.032Z,81.71
2019-01-09T03:09:23.329Z,82.08
2019-01-09T03:11:52.917Z,82.53
2019-01-09T03:14:22.222Z,82.60
2019-01-09T03:16:51.531Z,82.76
2019-01-09T03:19:20.895Z,82.86
2019-01-09T03:21:50.226Z,83.31
2019-01-09T03:24:19.624Z,83.32
2019-01-09T03:26:48.959Z,82.94
2019-01-09T03:29:18.318Z,82.86
2019-01-09T03:31:47.622Z,82.92
2019-01-09T03:34:16.956Z,83.08
2019-01-09T03:36:46.276Z,83.35
2019-01-09T03:39:15.577Z,83.34
2019-01-09T03:41:44.911Z,83.41
2019-01-09T03:44:14.368Z,83.38
2019-01-09T03:46:43.782Z,83.77
2019-01-09T03:49:13.168Z,84.09
2019-01-09T03:51:42.924Z,83.79
2019-01-09T03:54:12.259Z,83.59
2019-01-09T03:56:41.622Z,83.62
2019-01-09T03:59:11.066Z,83.28
2019-01-09T04:01:40.431Z,83.21
2019-01-09T04:04:09.737Z,82.98
2019-01-09T04:06:41.935Z,83.00
2019-01-09T04:09:10.136Z,83.30
2019-01-09T04:11:39.503Z,83.62
2019-01-09T04:14:08.818Z,83.90
2019-01-09T04:16:38.124Z,83.71
2019-01-09T04:19:07.545Z,83.56
2019-01-09T04:21:36.898Z,83.45
2019-01-09T04:24:06.300Z,83.36
2019-01-09T04:26:35.605Z,83.16
2019-01-09T04:29:04.970Z,83.49
2019-01-09T04:31:34.285Z,83.37
2019-01-09T04:34:03.620Z,83.30
2019-01-09T04:36:32.956Z,83.29
2019-01-09T04:39:02.347Z,83.34
2019-01-09T04:41:31.717Z,83.29
2019-01-09T04:44:01.067Z,83.63
2019-01-09T04:46:30.466Z,84.13
2019-01-09T04:48:59.767Z,84.27
2019-01-09T04:51:29.125Z,84.16
2019-01-09T04:53:59.418Z,83.75
2019-01-09T04:56:28.938Z,83.56
2019-01-09T04:58:58.308Z,83.90
2019-01-09T05:01:27.698Z,84.13
2019-01-09T05:03:57.073Z,84.35
2019-01-09T05:06:26.432Z,83.94
2019-01-09T05:08:55.781Z,84.00
2019-01-09T05:11:25.108Z,83.88
2019-01-09T05:13:54.382Z,83.90
2019-01-09T05:16:23.690Z,83.90
2019-01-09T05:18:53.003Z,83.76
2019-01-09T05:21:22.297Z,83.90
2019-01-09T05:23:51.639Z,83.70
2019-01-09T05:26:21.031Z,83.67
2019-01-09T05:28:50.394Z,83.75
2019-01-09T05:31:19.715Z,83.66
2019-01-09T05:33:49.059Z,83.76
2019-01-09T05:36:18.490Z,84.15
2019-01-09T05:38:47.870Z,84.35
2019-01-09T05:41:17.185Z,84.43
2019-01-09T05:43:46.528Z,84.62
2019-01-09T05:46:15.872Z,84.38
2019-01-09T05:48:45.215Z,84.38
2019-01-09T05:51:14.580Z,84.50
2019-01-09T05:53:43.896Z,84.51
2019-01-09T05:56:13.300Z,84.70
2019-01-09T05:58:42.652Z,84.89
2019-01-09T06:01:12.053Z,84.74
2019-01-09T06:03:41.457Z,84.71
2019-01-09T06:06:10.796Z,84.75
2019-01-09T06:08:40.180Z,84.75
2019-01-09T06:11:09.479Z,84.51
2019-01-09T06:13:38.804Z,83.95
2019-01-09T06:16:08.160Z,83.39
2019-01-09T06:18:37.452Z,82.96
2019-01-09T06:21:06.794Z,82.93
2019-01-09T06:23:36.115Z,82.45
2019-01-09T06:26:05.456Z,81.96
2019-01-09T06:28:34.824Z,81.28
2019-01-09T06:31:04.156Z,80.65
2019-01-09T06:33:33.473Z,80.30
2019-01-09T06:36:03.993Z,79.21
2019-01-09T06:38:33.484Z,78.39
2019-01-09T06:41:02.807Z,77.97
2019-01-09T06:43:32.146Z,77.85
2019-01-09T06:46:01.477Z,78.08
2019-01-09T06:48:30.801Z,77.73
2019-01-09T06:51:00.158Z,77.04
2019-01-09T06:53:29.513Z,76.50
2019-01-09T06:55:58.875Z,75.79
2019-01-09T06:58:30.039Z,75.32
2019-01-09T07:00:59.450Z,74.00
2019-01-09T07:03:28.811Z,73.10
2019-01-09T07:05:58.283Z,72.81
2019-01-09T07:08:27.617Z,71.65
2019-01-09T07:10:56.957Z,71.43
2019-01-09T07:13:26.311Z,70.03
2019-01-09T07:15:55.656Z,69.97
2019-01-09T07:18:24.985Z,68.95
2019-01-09T07:20:54.320Z,69.11
2019-01-09T07:23:25.599Z,69.80
2019-01-09T07:25:54.717Z,69.51
2019-01-09T07:28:24.035Z,67.99
2019-01-09T07:30:53.430Z,67.38
2019-01-09T07:33:22.755Z,66.46
2019-01-09T07:35:52.536Z,67.26
2019-01-09T07:38:21.874Z,67.29
2019-01-09T07:40:52.185Z,67.17
2019-01-09T07:43:21.577Z,68.33
2019-01-09T07:45:51.011Z,68.67
2019-01-09T07:48:20.335Z,67.79
2019-01-09T07:50:49.698Z,67.67
2019-01-09T07:53:18.998Z,67.91
2019-01-09T07:55:48.280Z,68.33
2019-01-09T07:58:17.645Z,68.12
2019-01-09T08:00:47.179Z,69.11
2019-01-09T08:03:16.529Z,69.33
2019-01-09T08:05:45.871Z,70.40
2019-01-09T08:08:16.202Z,71.15
2019-01-09T08:10:45.543Z,71.88
2019-01-09T08:13:14.933Z,72.22
2019-01-09T08:15:44.306Z,72.21
2019-01-09T08:18:13.649Z,72.64
2019-01-09T08:20:42.990Z,72.36
2019-01-09T08:23:12.378Z,72.98
2019-01-09T08:25:41.745Z,73.78
2019-01-09T08:28:11.039Z,73.54
2019-01-09T08:30:40.441Z,73.41
2019-01-09T08:33:10.921Z,73.53
2019-01-09T08:35:40.299Z,74.05
2019-01-09T08:38:09.665Z,73.81
2019-01-09T08:40:38.983Z,73.13
2019-01-09T08:43:08.322Z,73.33
2019-01-09T08:45:37.775Z,72.80
2019-01-09T08:48:07.155Z,72.21
2019-01-09T08:50:36.499Z,72.15
2019-01-09T08:53:05.806Z,73.00
2019-01-09T08:55:35.107Z,72.84
2019-01-09T08:58:04.464Z,72.63
2019-01-09T09:00:33.827Z,72.14
2019-01-09T09:03:03.277Z,71.95
2019-01-09T09:05:32.660Z,71.63
2019-01-09T09:08:11.748Z,70.85
2019-01-09T09:10:35.312Z,70.99
2019-01-09T09:13:04.673Z,70.99
2019-01-09T09:15:33.999Z,70.69
2019-01-09T09:18:03.293Z,70.89
2019-01-09T09:20:32.650Z,71.22
2019-01-09T09:23:01.998Z,70.92
2019-01-09T09:25:31.323Z,71.44
2019-01-09T09:28:00.687Z,71.39
2019-01-09T09:30:30.115Z,71.04
2019-01-09T09:32:59.486Z,70.97
2019-01-09T09:35:28.853Z,71.17
2019-01-09T09:37:58.218Z,71.35
2019-01-09T09:40:27.692Z,71.34
2019-01-09T09:42:57.067Z,71.44
2019-01-09T09:45:26.441Z,71.55
2019-01-09T09:47:55.761Z,71.49
2019-01-09T09:50:25.078Z,71.74
2019-01-09T09:52:54.458Z,72.31
2019-01-09T09:55:25.161Z,72.19
2019-01-09T09:57:54.491Z,71.94
2019-01-09T10:00:24.088Z,72.20
2019-01-09T10:02:54.252Z,72.32
2019-01-09T10:05:23.880Z,71.93
2019-01-09T10:07:53.341Z,71.75
2019-01-09T10:10:22.789Z,71.77
2019-01-09T10:12:52.453Z,71.79
2019-01-09T10:15:22.312Z,71.94
2019-01-09T10:17:54.406Z,71.80
2019-01-09T10:20:23.852Z,72.11
2019-01-09T10:22:53.240Z,71.94
2019-01-09T10:25:22.606Z,72.39
2019-01-09T10:27:51.891Z,72.78
2019-01-09T10:30:24.363Z,72.61
2019-01-09T10:32:53.719Z,72.05
2019-01-09T10:35:23.025Z,71.89
2019-01-09T10:37:52.553Z,71.37
2019-01-09T10:40:22.054Z,70.85
2019-01-09T10:42:51.641Z,70.26
2019-01-09T10:45:22.389Z,70.37
2019-01-09T10:47:51.724Z,69.66
2019-01-09T10:50:21.073Z,69.51
2019-01-09T10:52:50.409Z,70.00
2019-01-09T10:55:20.374Z,69.87
2019-01-09T10:57:49.702Z,70.06
2019-01-09T11:00:24.561Z,70.16
2019-01-09T11:02:54.330Z,69.77
2019-01-09T11:05:23.980Z,69.78
2019-01-09T11:07:53.325Z,69.80
2019-01-09T11:10:23.006Z,70.03
2019-01-09T11:12:52.399Z,69.94
2019-01-09T11:15:21.804Z,69.64
2019-01-09T11:17:51.106Z,70.11
2019-01-09T11:20:21.502Z,70.20
2019-01-09T11:22:50.815Z,70.10
2019-01-09T11:25:22.300Z,70.04
2019-01-09T11:27:51.820Z,70.32
2019-01-09T11:30:21.268Z,70.24
2019-01-09T11:32:50.735Z,70.50
2019-01-09T11:35:22.195Z,71.02
2019-01-09T11:37:53.000Z,70.99
2019-01-09T11:40:22.626Z,71.87
2019-01-09T11:42:52.072Z,72.71
2019-01-09T11:45:21.534Z,73.05
2019-01-09T11:47:50.865Z,73.63
2019-01-09T11:50:20.223Z,73.99
2019-01-09T11:52:49.676Z,74.12
2019-01-09T11:55:19.045Z,74.08
2019-01-09T11:57:48.390Z,74.88
2019-01-09T12:00:23.291Z,75.63
2019-01-09T12:02:52.632Z,76.18
2019-01-09T12:05:22.159Z,76.73
2019-01-09T12:07:51.614Z,76.53
2019-01-09T12:10:29.866Z,76.33
2019-01-09T12:12:53.424Z,76.67
2019-01-09T12:15:22.948Z,77.67
2019-01-09T12:17:52.274Z,78.14
2019-01-09T12:20:21.743Z,78.39
2019-01-09T12:22:51.125Z,78.86
2019-01-09T12:25:20.498Z,79.38
2019-01-09T12:27:49.813Z,79.10
2019-01-09T12:30:27.446Z,79.77
2019-01-09T12:32:56.893Z,80.66
2019-01-09T12:35:26.199Z,81.50
2019-01-09T12:37:55.508Z,81.75
2019-01-09T12:40:25.131Z,82.06
2019-01-09T12:42:55.717Z,81.85
2019-01-09T12:45:25.035Z,82.52
2019-01-09T12:47:54.403Z,82.15
2019-01-09T12:50:25.429Z,81.84
2019-01-09T12:52:54.787Z,81.81
2019-01-09T12:55:24.317Z,82.00
2019-01-09T12:57:53.645Z,82.30
2019-01-09T13:00:25.382Z,82.06
2019-01-09T13:02:54.930Z,81.78
2019-01-09T13:05:24.631Z,81.96
2019-01-09T13:07:54.512Z,81.98
2019-01-09T13:10:23.901Z,81.79
2019-01-09T13:12:53.285Z,81.78
2019-01-09T13:15:22.598Z,81.43
2019-01-09T13:17:52.203Z,80.55
2019-01-09T13:20:21.509Z,80.54
2019-01-09T13:22:50.900Z,80.72
2019-01-09T13:25:20.223Z,79.73
2019-01-09T13:27:49.561Z,79.19
2019-01-09T13:30:23.665Z,79.37
2019-01-09T13:32:53.058Z,79.66
2019-01-09T13:35:22.399Z,79.29
2019-01-09T13:37:51.744Z,79.02
2019-01-09T13:40:21.680Z,79.33
2019-01-09T13:42:51.128Z,79.19
2019-01-09T13:45:22.061Z,78.58
2019-01-09T13:47:51.537Z,78.40
2019-01-09T13:50:21.139Z,78.28
2019-01-09T13:52:50.888Z,78.82
2019-01-09T13:55:20.340Z,79.39
2019-01-09T13:57:49.969Z,79.79
2019-01-09T14:00:21.515Z,80.28
2019-01-09T14:02:50.890Z,80.96
2019-01-09T14:05:20.419Z,81.62
2019-01-09T14:07:49.888Z,82.42
2019-01-09T14:10:24.432Z,83.17
2019-01-09T14:12:53.760Z,83.75
2019-01-09T14:15:23.247Z,84.32
2019-01-09T14:17:52.615Z,83.58
2019-01-09T14:20:22.074Z,83.22
2019-01-09T14:22:51.398Z,83.92
2019-01-09T14:25:20.808Z,84.60
2019-01-09T14:27:50.403Z,85.44
2019-01-09T14:30:24.984Z,86.27
2019-01-09T14:32:54.352Z,86.42
2019-01-09T14:35:23.952Z,86.81
2019-01-09T14:37:53.333Z,87.13
2019-01-09T14:40:23.363Z,87.06
2019-01-09T14:42:52.659Z,87.16
2019-01-09T14:45:22.214Z,87.39
2019-01-09T14:47:51.615Z,87.29
2019-01-09T14:50:23.607Z,87.24
2019-01-09T14:52:53.643Z,86.95
2019-01-09T14:55:23.091Z,86.82
2019-01-09T14:57:53.028Z,86.52
2019-01-09T15:00:24.484Z,86.43
2019-01-09T15:02:54.045Z,86.15
2019-01-09T15:05:23.643Z,85.67
2019-01-09T15:07:53.080Z,85.72
2019-01-09T15:10:24.769Z,85.76
2019-01-09T15:12:54.194Z,85.75
2019-01-09T15:15:23.534Z,85.00
2019-01-09T15:17:52.995Z,84.33
2019-01-09T15:20:22.521Z,83.99
2019-01-09T15:22:51.850Z,83.82
2019-01-09T15:25:21.193Z,83.50
2019-01-09T15:27:50.602Z,83.22
2019-01-09T15:30:26.617Z,83.48
2019-01-09T15:32:56.398Z,83.07
2019-01-09T15:35:25.967Z,83.55
2019-01-09T15:37:55.304Z,83.67
2019-01-09T15:40:29.175Z,84.03
2019-01-09T15:42:58.515Z,85.45
2019-01-09T15:45:29.439Z,86.00
2019-01-09T15:47:58.796Z,86.38
2019-01-09T15:50:28.716Z,86.28
2019-01-09T15:52:58.025Z,86.23
2019-01-09T15:55:27.352Z,86.25
2019-01-09T15:57:56.753Z,86.05
2019-01-09T16:00:34.969Z,86.28
2019-01-09T16:03:04.605Z,86.72
2019-01-09T16:05:33.979Z,87.02
2019-01-09T16:08:03.385Z,87.50
2019-01-09T16:10:32.836Z,88.11
2019-01-09T16:13:02.162Z,88.72
2019-01-09T16:15:31.535Z,89.22
2019-01-09T16:18:00.889Z,89.81
2019-01-09T16:20:30.281Z,90.18
2019-01-09T16:22:59.611Z,90.39
2019-01-09T16:25:28.933Z,90.35
2019-01-09T16:27:58.277Z,90.54
2019-01-09T16:30:50.915Z,90.39
2019-01-09T16:33:20.306Z,90.44
2019-01-09T16:35:49.713Z,90.25
2019-01-09T16:38:19.089Z,90.11
2019-01-09T16:40:48.513Z,90.09
2019-01-09T16:43:17.860Z,89.84
2019-01-09T16:45:47.324Z,89.39
2019-01-09T16:48:16.681Z,88.96
2019-01-09T16:50:46.007Z,89.07
2019-01-09T16:53:15.351Z,88.67
2019-01-09T16:55:44.729Z,88.01
2019-01-09T16:58:14.084Z,87.65
2019-01-09T17:00:43.686Z,87.41
2019-01-09T17:03:13.449Z,86.94
2019-01-09T17:05:42.753Z,86.65
2019-01-09T17:08:12.086Z,86.38
2019-01-09T17:10:41.414Z,86.04
2019-01-09T17:13:10.831Z,85.40
2019-01-09T17:15:40.168Z,85.43
2019-01-09T17:18:09.628Z,85.13
2019-01-09T17:20:38.975Z,84.91
2019-01-09T17:23:08.351Z,85.33
2019-01-09T17:25:37.743Z,85.41
2019-01-09T17:28:07.633Z,85.33
2019-01-09T17:30:37.141Z,84.68
2019-01-09T17:33:07.368Z,84.39
2019-01-09T17:35:36.913Z,84.22
2019-01-09T17:38:06.351Z,84.13
2019-01-09T17:40:40.968Z,83.51
2019-01-09T17:43:07.322Z,83.10
2019-01-09T17:45:36.627Z,82.59
2019-01-09T17:48:06.631Z,82.45
2019-01-09T17:50:37.027Z,82.55
2019-01-09T17:53:06.711Z,82.59
2019-01-09T17:55:36.074Z,82.77
2019-01-09T17:58:05.499Z,83.13
2019-01-09T18:00:37.377Z,83.34
2019-01-09T18:03:06.825Z,83.88
2019-01-09T18:05:36.266Z,84.43
2019-01-09T18:08:10.933Z,84.92
2019-01-09T18:10:37.237Z,85.55
2019-01-09T18:13:06.957Z,86.00
2019-01-09T18:15:36.317Z,86.41
2019-01-09T18:18:06.259Z,86.73
2019-01-09T18:20:35.619Z,86.71
2019-01-09T18:23:05.072Z,86.31
2019-01-09T18:25:34.430Z,85.41
2019-01-09T18:28:03.785Z,85.10
2019-01-09T18:30:39.216Z,84.42
2019-01-09T18:33:29.377Z,84.71
2019-01-09T18:36:20.477Z,85.14
2019-01-09T18:39:34.771Z,85.81
2019-01-09T18:42:16.634Z,87.26
2019-01-09T18:45:14.076Z,88.12
2019-01-09T18:48:35.273Z,88.96
2019-01-09T18:51:39.909Z,89.81
2019-01-09T18:54:09.244Z,92.34
2019-01-09T18:56:44.950Z,95.51
2019-01-09T18:59:20.006Z,97.09
2019-01-09T19:01:49.386Z,98.56
2019-01-09T19:04:18.788Z,99.42
2019-01-09T19:06:48.229Z,99.54
2019-01-09T19:09:17.618Z,99.94
2019-01-09T19:11:50.640Z,99.63
2019-01-09T19:14:18.177Z,99.26
2019-01-09T19:16:47.581Z,98.89
2019-01-09T19:19:16.990Z,98.80
2019-01-09T19:21:46.520Z,98.74
2019-01-09T19:24:16.480Z,98.81
2019-01-09T19:26:45.855Z,98.86
2019-01-09T19:29:15.229Z,98.95
2019-01-09T19:31:44.580Z,99.01
2019-01-09T19:34:13.973Z,99.14
2019-01-09T19:36:43.371Z,99.26
2019-01-09T19:39:12.794Z,99.39
2019-01-09T19:41:42.619Z,99.44
2019-01-09T19:44:12.491Z,99.49
2019-01-09T19:46:41.912Z,99.51
2019-01-09T19:49:11.294Z,99.55
2019-01-09T19:51:40.698Z,99.47
2019-01-09T19:54:10.110Z,99.95
2019-01-09T19:56:40.447Z,100.00
2019-01-09T19:59:09.840Z,100.00
2019-01-09T20:01:39.575Z,99.77
2019-01-09T20:04:09.389Z,100.00
2019-01-09T20:06:38.857Z,100.00
2019-01-09T20:09:09.873Z,100.00
2019-01-09T20:11:39.373Z,100.00
2019-01-09T20:14:08.802Z,100.00
2019-01-09T20:16:39.733Z,100.00
2019-01-09T20:19:09.251Z,100.00
2019-01-09T20:21:43.450Z,100.00
2019-01-09T20:24:12.867Z,100.00
2019-01-09T20:26:42.283Z,100.00
2019-01-09T20:29:13.982Z,100.00
2019-01-09T20:32:00.435Z,100.00
2019-01-09T20:34:29.839Z,100.00
2019-01-09T20:37:03.423Z,100.00
2019-01-09T20:39:35.164Z,100.00
2019-01-09T20:42:04.601Z,100.00
2019-01-09T20:44:35.281Z,100.00
2019-01-09T20:47:15.271Z,100.00
2019-01-09T20:49:45.350Z,100.00
2019-01-09T20:52:24.158Z,100.00
2019-01-09T20:54:54.045Z,100.00
2019-01-09T20:57:24.177Z,100.00
2019-01-09T20:59:56.851Z,100.00
2019-01-09T21:02:26.243Z,100.00
2019-01-09T21:04:56.888Z,100.00
2019-01-09T21:07:29.155Z,100.00
2019-01-09T21:09:58.589Z,100.00
2019-01-09T21:12:28.212Z,100.00
2019-01-09T21:14:57.671Z,100.00
2019-01-09T21:17:27.060Z,100.00
2019-01-09T21:19:56.365Z,100.00
2019-01-09T21:22:26.057Z,100.00
2019-01-09T21:24:55.409Z,100.00
2019-01-09T21:27:24.830Z,100.00
2019-01-09T21:29:54.236Z,100.00
2019-01-09T21:32:23.642Z,100.00
2019-01-09T21:34:53.080Z,100.00
2019-01-09T21:37:22.514Z,100.00
2019-01-09T21:39:51.928Z,100.00
2019-01-09T21:42:21.268Z,100.00
2019-01-09T21:44:50.624Z,100.00
2019-01-09T21:47:20.001Z,100.00
2019-01-09T21:49:49.330Z,100.00
2019-01-09T21:52:19.017Z,100.00
2019-01-09T21:54:48.366Z,100.00
2019-01-09T21:57:17.663Z,100.00
2019-01-09T21:59:47.788Z,100.00
2019-01-09T22:02:17.087Z,100.00
2019-01-09T22:04:46.735Z,100.00
2019-01-09T22:07:16.096Z,100.00
2019-01-09T22:09:45.408Z,100.00
2019-01-09T22:12:15.106Z,100.00
2019-01-09T22:14:47.191Z,100.00
2019-01-09T22:17:16.691Z,100.00
2019-01-09T22:19:46.373Z,100.00
2019-01-09T22:22:15.732Z,100.00
2019-01-09T22:24:45.271Z,100.00
2019-01-09T22:27:14.649Z,100.00
2019-01-09T22:29:44.012Z,100.00
2019-01-09T22:32:13.370Z,100.00
2019-01-09T22:34:42.733Z,100.00
2019-01-09T22:37:12.540Z,100.00
2019-01-09T22:39:42.975Z,100.00
2019-01-09T22:42:12.385Z,100.00
2019-01-09T22:44:41.694Z,100.00
2019-01-09T22:47:11.104Z,100.00
2019-01-09T22:49:40.417Z,100.00
2019-01-09T22:52:09.766Z,100.00
2019-01-09T22:54:39.120Z,100.00
2019-01-09T22:57:08.496Z,100.00
2019-01-09T22:59:37.842Z,100.00
2019-01-09T23:02:08.143Z,100.00
2019-01-09T23:04:37.458Z,100.00
2019-01-09T23:07:06.799Z,100.00
2019-01-09T23:09:37.129Z,100.00
2019-01-09T23:12:06.545Z,100.00
2019-01-09T23:14:37.676Z,100.00
2019-01-09T23:17:07.130Z,100.00
2019-01-09T23:19:37.303Z,100.00
2019-01-09T23:22:08.914Z,100.00
2019-01-09T23:24:38.354Z,100.00
2019-01-09T23:27:08.412Z,100.00
2019-01-09T23:29:37.778Z,100.00
2019-01-09T23:32:07.135Z,100.00
2019-01-09T23:34:36.507Z,100.00
2019-01-09T23:37:05.985Z,100.00
2019-01-09T23:39:35.375Z,100.00
2019-01-09T23:42:05.113Z,100.00
2019-01-09T23:44:34.448Z,100.00
2019-01-09T23:47:04.178Z,100.00
2019-01-09T23:49:33.520Z,100.00
2019-01-09T23:52:02.949Z,100.00
2019-01-09T23:54:32.308Z,100.00
2019-01-09T23:57:01.693Z,100.00
2019-01-09T23:59:31.086Z,100.00
